Weather reports worldwide

Advertisment
Menorca Airport, Spain (2008314): temperature & dewpoint: 12.01.2020 14:00:00 - 18.01.2020 14:00:00 (CET)Menorca Airport, Spain (2008314): wind speed: 12.01.2020 14:00:00 - 18.01.2020 14:00:00 (CET)Menorca Airport, Spain (2008314): wind direction: 12.01.2020 14:00:00 - 18.01.2020 14:00:00 (CET)Menorca Airport, Spain (2008314): visibility: 12.01.2020 14:00:00 - 18.01.2020 14:00:00 (CET)
Date & Time tt [°C] td [°C] ff [km/h] ff [kn] dd vv [km]
18.01.2020 14:00:00 - - - - - -
18.01.2020 13:00:00 14,0 9,0 16 9 SW 10
18.01.2020 12:00:00 14,0 9,0 16 9 SW 10
18.01.2020 11:00:00 13,0 9,0 13 7 SSW 10
18.01.2020 10:00:00 11,0 9,0 8 4 SSE 10
18.01.2020 09:00:00 11,0 8,0 4 2 - 10
18.01.2020 08:00:00 9,0 6,0 4 2 SE 10
18.01.2020 07:00:00 6,0 4,0 0 0 N 10
18.01.2020 06:00:00 10,0 7,0 2 1 E 10
18.01.2020 05:00:00 8,0 5,0 5 3 NNE 10
18.01.2020 04:00:00 9,0 6,0 8 4 NNE 10
18.01.2020 03:00:00 10,0 6,0 5 3 NE 10
18.01.2020 02:00:00 8,0 5,0 11 6 N 10
18.01.2020 01:00:00 9,0 5,0 13 7 NNE 10
18.01.2020 00:00:00 10,0 6,0 13 7 NE 10
17.01.2020 23:00:00 10,0 6,0 16 9 NE 10
17.01.2020 22:00:00 11,0 7,0 22 12 NNE 10
17.01.2020 21:00:00 11,0 8,0 28 15 N 10
17.01.2020 20:00:00 13,0 8,0 15 8 WNW 10
17.01.2020 19:00:00 13,0 8,0 18 10 WNW 10
17.01.2020 18:00:00 13,0 8,0 15 8 W 10
17.01.2020 17:00:00 15,0 8,0 15 8 W 10
17.01.2020 16:00:00 16,0 12,0 18 10 WSW 10
17.01.2020 15:00:00 16,0 13,0 22 12 SW 10
17.01.2020 14:00:00 16,0 12,0 26 14 SW 10
17.01.2020 13:00:00 15,0 12,0 24 13 SW 10
17.01.2020 12:00:00 14,0 11,0 21 11 WSW 10
17.01.2020 11:00:00 14,0 11,0 18 10 WSW 10
17.01.2020 10:00:00 14,0 11,0 16 9 SW 10
17.01.2020 09:00:00 14,0 10,0 22 12 SW 10
17.01.2020 08:00:00 13,0 10,0 24 13 SW 10
17.01.2020 07:00:00 13,0 10,0 18 10 SW 10
17.01.2020 06:00:00 13,0 10,0 18 10 SW 10
17.01.2020 05:00:00 13,0 10,0 18 10 SW 10
17.01.2020 04:00:00 13,0 10,0 18 10 SW 10
17.01.2020 03:00:00 12,0 10,0 15 8 SW 10
17.01.2020 02:00:00 13,0 10,0 15 8 SW 10
17.01.2020 01:00:00 12,0 10,0 13 7 SW 10
17.01.2020 00:00:00 12,0 10,0 9 5 SSW 10
16.01.2020 23:00:00 12,0 10,0 11 6 SSW 10
16.01.2020 22:00:00 11,0 10,0 9 5 SW 10
16.01.2020 21:00:00 11,0 10,0 11 6 S 10
16.01.2020 20:00:00 11,0 10,0 8 4 SSW 10
16.01.2020 19:00:00 11,0 9,0 5 3 SSW 10
16.01.2020 18:00:00 12,0 9,0 8 4 SSW 10
16.01.2020 17:00:00 13,0 9,0 5 3 S 10
16.01.2020 16:00:00 14,0 9,0 8 4 S 10
16.01.2020 15:00:00 14,0 10,0 9 5 SW 10
16.01.2020 14:00:00 15,0 10,0 9 5 SSW 10
16.01.2020 13:00:00 14,0 9,0 9 5 SSW 10
16.01.2020 12:00:00 15,0 10,0 13 7 S 10
16.01.2020 11:00:00 14,0 9,0 15 8 SSE 10
16.01.2020 10:00:00 13,0 11,0 5 3 SE 10
16.01.2020 09:00:00 10,0 9,0 4 2 SE 10
16.01.2020 08:00:00 9,0 8,0 0 0 N 10
16.01.2020 07:00:00 8,0 7,0 0 0 N 10
16.01.2020 06:00:00 7,0 5,0 0 0 N 10
16.01.2020 05:00:00 7,0 5,0 0 0 N 10
16.01.2020 04:00:00 9,0 7,0 4 2 NNE 10
16.01.2020 03:00:00 8,0 7,0 5 3 N 10
16.01.2020 02:00:00 8,0 7,0 8 4 N 10
16.01.2020 01:00:00 9,0 7,0 11 6 NNW 10
16.01.2020 00:00:00 8,0 7,0 5 3 NW 10
15.01.2020 23:00:00 9,0 6,0 0 0 N 10
15.01.2020 22:00:00 11,0 7,0 5 3 W 10
15.01.2020 21:00:00 11,0 8,0 8 4 WSW 10
15.01.2020 20:00:00 12,0 9,0 9 5 SW 10
15.01.2020 19:00:00 12,0 9,0 9 5 SW 10
15.01.2020 18:00:00 13,0 9,0 11 6 SW 10
15.01.2020 17:00:00 14,0 10,0 15 8 SW 10
15.01.2020 16:00:00 14,0 10,0 18 10 SSW 10
15.01.2020 15:00:00 15,0 10,0 18 10 SSW 10
15.01.2020 14:00:00 15,0 10,0 21 11 SW 10
15.01.2020 13:00:00 15,0 10,0 18 10 SSW 10
15.01.2020 12:00:00 14,0 9,0 21 11 SSW 10
15.01.2020 11:00:00 14,0 9,0 21 11 SSW 10
15.01.2020 10:00:00 14,0 9,0 16 9 S 10
15.01.2020 09:00:00 13,0 8,0 21 11 S 10
15.01.2020 08:00:00 13,0 6,0 13 7 S 10
15.01.2020 07:00:00 12,0 6,0 9 5 S 10
15.01.2020 06:00:00 13,0 7,0 15 8 SSW 10
15.01.2020 05:00:00 12,0 8,0 16 9 S 10
15.01.2020 04:00:00 11,0 8,0 16 9 S 10
15.01.2020 03:00:00 11,0 7,0 13 7 S 10
15.01.2020 02:00:00 11,0 7,0 16 9 S 10
15.01.2020 01:00:00 11,0 7,0 16 9 S 10
15.01.2020 00:00:00 11,0 7,0 16 9 S 10
14.01.2020 23:00:00 11,0 6,0 18 10 S 10
14.01.2020 22:00:00 12,0 6,0 16 9 S 10
14.01.2020 21:00:00 12,0 6,0 15 8 SSW 10
14.01.2020 20:00:00 12,0 7,0 13 7 S 10
14.01.2020 19:00:00 12,0 6,0 15 8 SSW 10
14.01.2020 18:00:00 13,0 7,0 15 8 SSW 10
14.01.2020 17:00:00 13,0 7,0 15 8 SSW 10
14.01.2020 16:00:00 14,0 8,0 21 11 SSW 10
14.01.2020 15:00:00 14,0 6,0 21 11 SSW 10
14.01.2020 14:00:00 14,0 7,0 22 12 SW 10
14.01.2020 13:00:00 13,0 7,0 24 13 SSW 10
14.01.2020 12:00:00 14,0 6,0 26 14 SSW 10
14.01.2020 11:00:00 13,0 7,0 21 11 SSW 10
14.01.2020 10:00:00 13,0 7,0 16 9 SW 10
14.01.2020 09:00:00 12,0 6,0 16 9 SSW 10
14.01.2020 08:00:00 12,0 6,0 11 6 SW 10
14.01.2020 07:00:00 12,0 6,0 15 8 SW 10
14.01.2020 06:00:00 12,0 6,0 21 11 SW 10
14.01.2020 05:00:00 12,0 6,0 16 9 SSW 10
14.01.2020 04:00:00 12,0 6,0 18 10 SW 10
14.01.2020 03:00:00 12,0 6,0 18 10 SW 10
14.01.2020 02:00:00 12,0 6,0 15 8 SSW 10
14.01.2020 01:00:00 12,0 6,0 16 9 SW 10
14.01.2020 00:00:00 12,0 7,0 16 9 SW 10
13.01.2020 23:00:00 12,0 7,0 16 9 SW 10
13.01.2020 22:00:00 11,0 7,0 16 9 SSW 10
13.01.2020 21:00:00 11,0 6,0 15 8 SW 10
13.01.2020 20:00:00 12,0 7,0 16 9 SW 10
13.01.2020 19:00:00 11,0 7,0 11 6 SW 10
13.01.2020 18:00:00 11,0 8,0 11 6 SW 10
13.01.2020 17:00:00 12,0 8,0 13 7 SW 10
13.01.2020 16:00:00 13,0 8,0 15 8 SW 10
13.01.2020 15:00:00 13,0 9,0 15 8 SW 10
13.01.2020 14:00:00 13,0 8,0 13 7 WSW 10
13.01.2020 13:00:00 13,0 8,0 15 8 SW 10
13.01.2020 12:00:00 13,0 8,0 9 5 SW 10
13.01.2020 11:00:00 13,0 8,0 9 5 WSW 10
13.01.2020 10:00:00 11,0 10,0 4 2 - 10
13.01.2020 09:00:00 8,0 7,0 5 3 WNW 10
13.01.2020 08:00:00 6,0 5,0 8 4 NNW 10
13.01.2020 07:00:00 7,0 7,0 9 5 WNW 10
13.01.2020 06:00:00 7,0 6,0 8 4 NNW 10
13.01.2020 05:00:00 7,0 6,0 8 4 NW 10
13.01.2020 04:00:00 7,0 6,0 8 4 NW 10
13.01.2020 03:00:00 7,0 6,0 5 3 NW 10
13.01.2020 02:00:00 8,0 6,0 8 4 WNW 10
13.01.2020 01:00:00 8,0 7,0 11 6 NW 10
13.01.2020 00:00:00 8,0 6,0 11 6 NNW 10
12.01.2020 23:00:00 8,0 7,0 9 5 NW 10
12.01.2020 22:00:00 9,0 8,0 11 6 NNW 10
12.01.2020 21:00:00 9,0 8,0 11 6 NNW 10
12.01.2020 20:00:00 9,0 7,0 11 6 NNW 10
12.01.2020 19:00:00 9,0 8,0 9 5 NNW 10
12.01.2020 18:00:00 10,0 8,0 9 5 NNW 10
12.01.2020 17:00:00 12,0 9,0 13 7 N 10
12.01.2020 16:00:00 13,0 9,0 18 10 N 10
12.01.2020 15:00:00 13,0 8,0 28 15 N 10
12.01.2020 14:00:00 13,0 9,0 28 15 N 10

tt = temperature
td = dewpoint
ff = wind speed
dd = wind direction
vv = visibility

Next stations